sensor_id;sensor_type;location;lat;lon;timestamp;pressure;altitude;pressure_sealevel;temperature
19948;BMP180;10135;50.702;7.276;2023-07-16T05:31:42;99238.00;;;23.10
19948;BMP180;10135;50.702;7.276;2023-07-16T05:33:46;99235.00;;;23.10
19948;BMP180;10135;50.702;7.276;2023-07-16T05:35:49;99244.00;;;23.20
19948;BMP180;10135;50.702;7.276;2023-07-16T05:37:50;99247.00;;;23.20
19948;BMP180;10135;50.702;7.276;2023-07-16T05:39:54;99248.00;;;23.20
19948;BMP180;10135;50.702;7.276;2023-07-16T05:42:09;99262.00;;;23.30
19948;BMP180;10135;50.702;7.276;2023-07-16T05:44:16;99257.00;;;23.30
19948;BMP180;10135;50.702;7.276;2023-07-16T05:46:17;99268.00;;;23.40
19948;BMP180;10135;50.702;7.276;2023-07-16T05:48:17;99263.00;;;23.30
19948;BMP180;10135;50.702;7.276;2023-07-16T05:50:26;99264.00;;;23.30
19948;BMP180;10135;50.702;7.276;2023-07-16T05:52:30;99258.00;;;23.30
19948;BMP180;10135;50.702;7.276;2023-07-16T05:54:30;99265.00;;;23.30
19948;BMP180;10135;50.702;7.276;2023-07-16T05:56:32;99266.00;;;23.40
19948;BMP180;10135;50.702;7.276;2023-07-16T05:58:32;99273.00;;;23.40
19948;BMP180;10135;50.702;7.276;2023-07-16T06:00:33;99267.00;;;23.40
19948;BMP180;10135;50.702;7.276;2023-07-16T06:02:33;99270.00;;;23.40
19948;BMP180;10135;50.702;7.276;2023-07-16T06:04:34;99274.00;;;23.40
19948;BMP180;10135;50.702;7.276;2023-07-16T06:06:35;99271.00;;;23.40
19948;BMP180;10135;50.702;7.276;2023-07-16T06:08:36;99274.00;;;23.50
19948;BMP180;10135;50.702;7.276;2023-07-16T06:10:36;99271.00;;;23.50
19948;BMP180;10135;50.702;7.276;2023-07-16T06:12:38;99278.00;;;23.50
19948;BMP180;10135;50.702;7.276;2023-07-16T06:14:38;99283.00;;;23.50
19948;BMP180;10135;50.702;7.276;2023-07-16T06:16:39;99279.00;;;23.50
19948;BMP180;10135;50.702;7.276;2023-07-16T06:18:40;99277.00;;;23.50
19948;BMP180;10135;50.702;7.276;2023-07-16T06:20:45;99278.00;;;23.50
19948;BMP180;10135;50.702;7.276;2023-07-16T06:22:45;99286.00;;;23.50
19948;BMP180;10135;50.702;7.276;2023-07-16T06:24:46;99288.00;;;23.50
19948;BMP180;10135;50.702;7.276;2023-07-16T06:26:46;99292.00;;;23.50
19948;BMP180;10135;50.702;7.276;2023-07-16T06:28:48;99289.00;;;23.50
19948;BMP180;10135;50.702;7.276;2023-07-16T06:30:50;99295.00;;;23.50
19948;BMP180;10135;50.702;7.276;2023-07-16T06:32:54;99280.00;;;23.50
19948;BMP180;10135;50.702;7.276;2023-07-16T06:34:55;99289.00;;;23.50
19948;BMP180;10135;50.702;7.276;2023-07-16T06:36:55;99289.00;;;23.50
19948;BMP180;10135;50.702;7.276;2023-07-16T06:38:56;99291.00;;;23.60
19948;BMP180;10135;50.702;7.276;2023-07-16T06:40:56;99290.00;;;23.60
19948;BMP180;10135;50.702;7.276;2023-07-16T06:42:57;99293.00;;;23.70
19948;BMP180;10135;50.702;7.276;2023-07-16T06:44:58;99293.00;;;23.80
19948;BMP180;10135;50.702;7.276;2023-07-16T06:46:58;99292.00;;;23.80
19948;BMP180;10135;50.702;7.276;2023-07-16T06:48:59;99290.00;;;23.90
19948;BMP180;10135;50.702;7.276;2023-07-16T06:51:00;99286.00;;;23.90
19948;BMP180;10135;50.702;7.276;2023-07-16T06:53:01;99305.00;;;23.90
19948;BMP180;10135;50.702;7.276;2023-07-16T06:55:01;99293.00;;;23.90
19948;BMP180;10135;50.702;7.276;2023-07-16T06:57:02;99288.00;;;23.90
19948;BMP180;10135;50.702;7.276;2023-07-16T06:59:03;99292.00;;;23.90
19948;BMP180;10135;50.702;7.276;2023-07-16T07:01:03;99296.00;;;23.90
19948;BMP180;10135;50.702;7.276;2023-07-16T07:03:04;99295.00;;;23.90
19948;BMP180;10135;50.702;7.276;2023-07-16T07:05:05;99291.00;;;23.90
19948;BMP180;10135;50.702;7.276;2023-07-16T07:07:06;99298.00;;;23.90
19948;BMP180;10135;50.702;7.276;2023-07-16T07:09:07;99298.00;;;23.90
19948;BMP180;10135;50.702;7.276;2023-07-16T07:11:07;99300.00;;;23.90
19948;BMP180;10135;50.702;7.276;2023-07-16T07:13:08;99298.00;;;23.90
19948;BMP180;10135;50.702;7.276;2023-07-16T07:15:09;99296.00;;;24.00
19948;BMP180;10135;50.702;7.276;2023-07-16T07:17:10;99299.00;;;24.00
19948;BMP180;10135;50.702;7.276;2023-07-16T07:19:10;99310.00;;;24.00
19948;BMP180;10135;50.702;7.276;2023-07-16T07:21:11;99306.00;;;24.00
19948;BMP180;10135;50.702;7.276;2023-07-16T07:23:12;99306.00;;;24.00
19948;BMP180;10135;50.702;7.276;2023-07-16T07:25:12;99308.00;;;24.00
19948;BMP180;10135;50.702;7.276;2023-07-16T07:27:13;99308.00;;;24.00
19948;BMP180;10135;50.702;7.276;2023-07-16T07:29:13;99309.00;;;24.00
19948;BMP180;10135;50.702;7.276;2023-07-16T07:31:14;99310.00;;;24.00
19948;BMP180;10135;50.702;7.276;2023-07-16T07:33:15;99306.00;;;24.00
19948;BMP180;10135;50.702;7.276;2023-07-16T07:35:16;99295.00;;;24.00
19948;BMP180;10135;50.702;7.276;2023-07-16T07:37:16;99308.00;;;24.00
19948;BMP180;10135;50.702;7.276;2023-07-16T07:39:17;99307.00;;;24.00
19948;BMP180;10135;50.702;7.276;2023-07-16T07:41:18;99295.00;;;24.00
19948;BMP180;10135;50.702;7.276;2023-07-16T07:43:18;99308.00;;;24.00
19948;BMP180;10135;50.702;7.276;2023-07-16T07:45:19;99308.00;;;24.00
19948;BMP180;10135;50.702;7.276;2023-07-16T07:47:20;99308.00;;;24.00
19948;BMP180;10135;50.702;7.276;2023-07-16T07:49:21;99308.00;;;24.00
19948;BMP180;10135;50.702;7.276;2023-07-16T07:51:21;99309.00;;;24.00
19948;BMP180;10135;50.702;7.276;2023-07-16T07:53:22;99308.00;;;24.00
19948;BMP180;10135;50.702;7.276;2023-07-16T07:55:23;99313.00;;;24.00
19948;BMP180;10135;50.702;7.276;2023-07-16T07:57:23;99305.00;;;24.10
19948;BMP180;10135;50.702;7.276;2023-07-16T07:59:24;99309.00;;;24.10
19948;BMP180;10135;50.702;7.276;2023-07-16T08:01:24;99321.00;;;24.20
19948;BMP180;10135;50.702;7.276;2023-07-16T08:03:25;99314.00;;;24.20
19948;BMP180;10135;50.702;7.276;2023-07-16T08:05:26;99318.00;;;24.30
19948;BMP180;10135;50.702;7.276;2023-07-16T08:07:26;99318.00;;;24.40
19948;BMP180;10135;50.702;7.276;2023-07-16T08:09:27;99316.00;;;24.60
19948;BMP180;10135;50.702;7.276;2023-07-16T08:11:28;99310.00;;;24.80
19948;BMP180;10135;50.702;7.276;2023-07-16T08:13:28;99322.00;;;24.90
19948;BMP180;10135;50.702;7.276;2023-07-16T08:15:29;99319.00;;;25.00
19948;BMP180;10135;50.702;7.276;2023-07-16T08:17:30;99309.00;;;25.00
19948;BMP180;10135;50.702;7.276;2023-07-16T08:19:30;99310.00;;;25.00
19948;BMP180;10135;50.702;7.276;2023-07-16T08:21:32;99316.00;;;25.00
19948;BMP180;10135;50.702;7.276;2023-07-16T08:23:33;99312.00;;;25.00
19948;BMP180;10135;50.702;7.276;2023-07-16T08:25:34;99313.00;;;25.00
19948;BMP180;10135;50.702;7.276;2023-07-16T08:27:35;99316.00;;;24.90
19948;BMP180;10135;50.702;7.276;2023-07-16T08:29:36;99325.00;;;24.90
19948;BMP180;10135;50.702;7.276;2023-07-16T08:31:37;99311.00;;;24.90
19948;BMP180;10135;50.702;7.276;2023-07-16T08:33:38;99317.00;;;24.90
19948;BMP180;10135;50.702;7.276;2023-07-16T08:35:39;99316.00;;;24.80
19948;BMP180;10135;50.702;7.276;2023-07-16T08:37:40;99316.00;;;24.80
19948;BMP180;10135;50.702;7.276;2023-07-16T08:39:41;99311.00;;;24.80
19948;BMP180;10135;50.702;7.276;2023-07-16T08:41:42;99312.00;;;24.80
19948;BMP180;10135;50.702;7.276;2023-07-16T08:43:46;99327.00;;;24.80
19948;BMP180;10135;50.702;7.276;2023-07-16T08:45:49;99317.00;;;24.80
19948;BMP180;10135;50.702;7.276;2023-07-16T08:47:50;99316.00;;;24.80
19948;BMP180;10135;50.702;7.276;2023-07-16T08:49:55;99317.00;;;24.80
19948;BMP180;10135;50.702;7.276;2023-07-16T08:52:01;99325.00;;;24.90
19948;BMP180;10135;50.702;7.276;2023-07-16T08:54:05;99322.00;;;24.90
19948;BMP180;10135;50.702;7.276;2023-07-16T08:56:06;99327.00;;;24.90
19948;BMP180;10135;50.702;7.276;2023-07-16T08:58:07;99320.00;;;24.90
19948;BMP180;10135;50.702;7.276;2023-07-16T09:00:09;99327.00;;;24.90
19948;BMP180;10135;50.702;7.276;2023-07-16T09:02:11;99329.00;;;24.90
19948;BMP180;10135;50.702;7.276;2023-07-16T09:04:12;99334.00;;;24.90
19948;BMP180;10135;50.702;7.276;2023-07-16T09:06:13;99330.00;;;24.90
19948;BMP180;10135;50.702;7.276;2023-07-16T09:08:14;99339.00;;;24.90
19948;BMP180;10135;50.702;7.276;2023-07-16T09:10:15;99331.00;;;24.90
19948;BMP180;10135;50.702;7.276;2023-07-16T09:12:16;99339.00;;;25.00
19948;BMP180;10135;50.702;7.276;2023-07-16T09:14:18;99338.00;;;25.00
19948;BMP180;10135;50.702;7.276;2023-07-16T09:16:19;99339.00;;;25.10
19948;BMP180;10135;50.702;7.276;2023-07-16T09:18:27;99339.00;;;25.10
19948;BMP180;10135;50.702;7.276;2023-07-16T09:20:28;99336.00;;;25.10
19948;BMP180;10135;50.702;7.276;2023-07-16T09:22:31;99350.00;;;25.20
19948;BMP180;10135;50.702;7.276;2023-07-16T09:24:31;99343.00;;;25.20
19948;BMP180;10135;50.702;7.276;2023-07-16T09:26:32;99336.00;;;25.30
19948;BMP180;10135;50.702;7.276;2023-07-16T09:28:34;99351.00;;;25.30
19948;BMP180;10135;50.702;7.276;2023-07-16T09:30:35;99337.00;;;25.30
19948;BMP180;10135;50.702;7.276;2023-07-16T09:32:37;99348.00;;;25.30
19948;BMP180;10135;50.702;7.276;2023-07-16T09:34:40;99342.00;;;25.40
19948;BMP180;10135;50.702;7.276;2023-07-16T09:36:40;99340.00;;;25.40
19948;BMP180;10135;50.702;7.276;2023-07-16T09:38:41;99347.00;;;25.40
19948;BMP180;10135;50.702;7.276;2023-07-16T09:40:44;99344.00;;;25.50
19948;BMP180;10135;50.702;7.276;2023-07-16T09:42:45;99348.00;;;25.50
19948;BMP180;10135;50.702;7.276;2023-07-16T09:44:46;99345.00;;;25.50
19948;BMP180;10135;50.702;7.276;2023-07-16T09:46:47;99346.00;;;25.50
19948;BMP180;10135;50.702;7.276;2023-07-16T09:48:48;99352.00;;;25.60
19948;BMP180;10135;50.702;7.276;2023-07-16T09:50:52;99349.00;;;25.60
19948;BMP180;10135;50.702;7.276;2023-07-16T09:52:53;99347.00;;;25.60
19948;BMP180;10135;50.702;7.276;2023-07-16T09:54:56;99348.00;;;25.60
19948;BMP180;10135;50.702;7.276;2023-07-16T09:56:59;99352.00;;;25.70
19948;BMP180;10135;50.702;7.276;2023-07-16T09:59:02;99356.00;;;25.70
19948;BMP180;10135;50.702;7.276;2023-07-16T10:01:06;99355.00;;;25.70
19948;BMP180;10135;50.702;7.276;2023-07-16T10:03:08;99340.00;;;25.80
19948;BMP180;10135;50.702;7.276;2023-07-16T10:05:27;99344.00;;;25.80
19948;BMP180;10135;50.702;7.276;2023-07-16T10:07:28;99344.00;;;25.80
19948;BMP180;10135;50.702;7.276;2023-07-16T10:09:51;99332.00;;;25.90
19948;BMP180;10135;50.702;7.276;2023-07-16T10:11:52;99350.00;;;25.90
19948;BMP180;10135;50.702;7.276;2023-07-16T10:13:52;99356.00;;;26.00
19948;BMP180;10135;50.702;7.276;2023-07-16T10:15:58;99351.00;;;26.00
19948;BMP180;10135;50.702;7.276;2023-07-16T10:17:59;99349.00;;;26.10
19948;BMP180;10135;50.702;7.276;2023-07-16T10:20:02;99357.00;;;26.10
19948;BMP180;10135;50.702;7.276;2023-07-16T10:22:06;99347.00;;;26.10
19948;BMP180;10135;50.702;7.276;2023-07-16T10:24:17;99361.00;;;26.10
19948;BMP180;10135;50.702;7.276;2023-07-16T10:26:27;99352.00;;;26.20
19948;BMP180;10135;50.702;7.276;2023-07-16T10:28:35;99364.00;;;26.30
19948;BMP180;10135;50.702;7.276;2023-07-16T10:30:36;99358.00;;;26.30
19948;BMP180;10135;50.702;7.276;2023-07-16T10:32:37;99363.00;;;26.40
19948;BMP180;10135;50.702;7.276;2023-07-16T10:34:39;99357.00;;;26.40
19948;BMP180;10135;50.702;7.276;2023-07-16T10:36:40;99356.00;;;26.50
19948;BMP180;10135;50.702;7.276;2023-07-16T10:38:41;99353.00;;;26.50
19948;BMP180;10135;50.702;7.276;2023-07-16T10:40:45;99350.00;;;26.60
19948;BMP180;10135;50.702;7.276;2023-07-16T10:42:46;99365.00;;;26.60
19948;BMP180;10135;50.702;7.276;2023-07-16T10:44:56;99355.00;;;26.70
19948;BMP180;10135;50.702;7.276;2023-07-16T10:46:57;99357.00;;;26.70
19948;BMP180;10135;50.702;7.276;2023-07-16T10:48:58;99354.00;;;26.80
19948;BMP180;10135;50.702;7.276;2023-07-16T10:50:59;99358.00;;;26.80
19948;BMP180;10135;50.702;7.276;2023-07-16T10:53:00;99362.00;;;26.80
19948;BMP180;10135;50.702;7.276;2023-07-16T10:55:01;99355.00;;;26.90
19948;BMP180;10135;50.702;7.276;2023-07-16T10:57:04;99357.00;;;26.90
19948;BMP180;10135;50.702;7.276;2023-07-16T10:59:05;99353.00;;;26.90
19948;BMP180;10135;50.702;7.276;2023-07-16T11:01:08;99351.00;;;27.00
19948;BMP180;10135;50.702;7.276;2023-07-16T11:03:09;99354.00;;;27.00
19948;BMP180;10135;50.702;7.276;2023-07-16T11:05:11;99352.00;;;27.10
19948;BMP180;10135;50.702;7.276;2023-07-16T11:07:14;99358.00;;;27.10
19948;BMP180;10135;50.702;7.276;2023-07-16T11:09:14;99360.00;;;27.20
19948;BMP180;10135;50.702;7.276;2023-07-16T11:11:16;99364.00;;;27.20
19948;BMP180;10135;50.702;7.276;2023-07-16T11:13:16;99354.00;;;27.30
19948;BMP180;10135;50.702;7.276;2023-07-16T11:15:17;99351.00;;;27.40
19948;BMP180;10135;50.702;7.276;2023-07-16T11:17:19;99351.00;;;27.40
19948;BMP180;10135;50.702;7.276;2023-07-16T11:19:21;99353.00;;;27.50
19948;BMP180;10135;50.702;7.276;2023-07-16T11:21:22;99354.00;;;27.50
19948;BMP180;10135;50.702;7.276;2023-07-16T11:23:23;99351.00;;;27.60
19948;BMP180;10135;50.702;7.276;2023-07-16T11:25:24;99354.00;;;27.60
19948;BMP180;10135;50.702;7.276;2023-07-16T11:27:31;99355.00;;;27.70
19948;BMP180;10135;50.702;7.276;2023-07-16T11:29:36;99364.00;;;27.70
19948;BMP180;10135;50.702;7.276;2023-07-16T11:31:39;99349.00;;;27.70
19948;BMP180;10135;50.702;7.276;2023-07-16T11:33:45;99353.00;;;27.80
19948;BMP180;10135;50.702;7.276;2023-07-16T11:35:48;99352.00;;;27.80
19948;BMP180;10135;50.702;7.276;2023-07-16T11:37:48;99357.00;;;27.80
19948;BMP180;10135;50.702;7.276;2023-07-16T11:39:49;99360.00;;;27.90
19948;BMP180;10135;50.702;7.276;2023-07-16T11:41:56;99355.00;;;28.00
19948;BMP180;10135;50.702;7.276;2023-07-16T11:44:02;99363.00;;;28.00
19948;BMP180;10135;50.702;7.276;2023-07-16T11:46:13;99366.00;;;28.10
19948;BMP180;10135;50.702;7.276;2023-07-16T11:48:14;99368.00;;;28.10
19948;BMP180;10135;50.702;7.276;2023-07-16T11:50:15;99349.00;;;28.20
19948;BMP180;10135;50.702;7.276;2023-07-16T11:52:22;99360.00;;;28.20
19948;BMP180;10135;50.702;7.276;2023-07-16T11:54:23;99362.00;;;28.20
19948;BMP180;10135;50.702;7.276;2023-07-16T11:56:24;99370.00;;;28.30
19948;BMP180;10135;50.702;7.276;2023-07-16T11:58:25;99360.00;;;28.30
19948;BMP180;10135;50.702;7.276;2023-07-16T12:00:25;99363.00;;;28.30
19948;BMP180;10135;50.702;7.276;2023-07-16T12:02:26;99353.00;;;28.40
19948;BMP180;10135;50.702;7.276;2023-07-16T12:04:27;99370.00;;;28.40
19948;BMP180;10135;50.702;7.276;2023-07-16T12:06:28;99365.00;;;28.40
19948;BMP180;10135;50.702;7.276;2023-07-16T12:08:29;99364.00;;;28.40
19948;BMP180;10135;50.702;7.276;2023-07-16T12:10:30;99377.00;;;28.40
19948;BMP180;10135;50.702;7.276;2023-07-16T12:12:31;99369.00;;;28.50
19948;BMP180;10135;50.702;7.276;2023-07-16T12:14:32;99364.00;;;28.50
19948;BMP180;10135;50.702;7.276;2023-07-16T12:16:33;99370.00;;;28.50
19948;BMP180;10135;50.702;7.276;2023-07-16T12:18:33;99364.00;;;28.50
19948;BMP180;10135;50.702;7.276;2023-07-16T12:20:35;99362.00;;;28.50
19948;BMP180;10135;50.702;7.276;2023-07-16T12:22:36;99365.00;;;28.40
19948;BMP180;10135;50.702;7.276;2023-07-16T12:24:37;99371.00;;;28.40
19948;BMP180;10135;50.702;7.276;2023-07-16T12:26:38;99370.00;;;28.40
19948;BMP180;10135;50.702;7.276;2023-07-16T12:28:38;99366.00;;;28.30
19948;BMP180;10135;50.702;7.276;2023-07-16T12:30:39;99367.00;;;28.30
19948;BMP180;10135;50.702;7.276;2023-07-16T12:32:40;99370.00;;;28.40
19948;BMP180;10135;50.702;7.276;2023-07-16T12:34:40;99370.00;;;28.40
19948;BMP180;10135;50.702;7.276;2023-07-16T12:36:41;99382.00;;;28.40
19948;BMP180;10135;50.702;7.276;2023-07-16T12:38:42;99389.00;;;28.50
19948;BMP180;10135;50.702;7.276;2023-07-16T12:40:42;99380.00;;;28.50
19948;BMP180;10135;50.702;7.276;2023-07-16T12:42:43;99378.00;;;28.40
19948;BMP180;10135;50.702;7.276;2023-07-16T12:44:44;99377.00;;;28.40
19948;BMP180;10135;50.702;7.276;2023-07-16T12:46:44;99362.00;;;28.40
19948;BMP180;10135;50.702;7.276;2023-07-16T12:48:45;99370.00;;;28.40
19948;BMP180;10135;50.702;7.276;2023-07-16T12:50:46;99377.00;;;28.50
19948;BMP180;10135;50.702;7.276;2023-07-16T12:52:46;99376.00;;;28.50
19948;BMP180;10135;50.702;7.276;2023-07-16T12:54:47;99382.00;;;28.60
19948;BMP180;10135;50.702;7.276;2023-07-16T12:56:47;99385.00;;;28.60
19948;BMP180;10135;50.702;7.276;2023-07-16T12:58:48;99392.00;;;28.70
19948;BMP180;10135;50.702;7.276;2023-07-16T13:00:49;99389.00;;;28.70
19948;BMP180;10135;50.702;7.276;2023-07-16T13:02:50;99388.00;;;28.80
19948;BMP180;10135;50.702;7.276;2023-07-16T13:04:50;99380.00;;;28.80
19948;BMP180;10135;50.702;7.276;2023-07-16T13:06:51;99377.00;;;28.80
19948;BMP180;10135;50.702;7.276;2023-07-16T13:08:52;99382.00;;;28.80
19948;BMP180;10135;50.702;7.276;2023-07-16T13:10:53;99384.00;;;28.80
19948;BMP180;10135;50.702;7.276;2023-07-16T13:12:54;99385.00;;;28.70
19948;BMP180;10135;50.702;7.276;2023-07-16T13:14:55;99378.00;;;28.70
19948;BMP180;10135;50.702;7.276;2023-07-16T13:16:55;99389.00;;;28.70
19948;BMP180;10135;50.702;7.276;2023-07-16T13:18:56;99384.00;;;28.60
19948;BMP180;10135;50.702;7.276;2023-07-16T13:20:57;99390.00;;;28.60
19948;BMP180;10135;50.702;7.276;2023-07-16T13:22:57;99395.00;;;28.50
19948;BMP180;10135;50.702;7.276;2023-07-16T13:24:58;99389.00;;;28.50
19948;BMP180;10135;50.702;7.276;2023-07-16T13:26:59;99391.00;;;28.50
19948;BMP180;10135;50.702;7.276;2023-07-16T13:29:00;99388.00;;;28.50
19948;BMP180;10135;50.702;7.276;2023-07-16T13:31:01;99395.00;;;28.60
19948;BMP180;10135;50.702;7.276;2023-07-16T13:33:01;99392.00;;;28.60
19948;BMP180;10135;50.702;7.276;2023-07-16T13:35:02;99396.00;;;28.60
19948;BMP180;10135;50.702;7.276;2023-07-16T13:37:03;99394.00;;;28.60
19948;BMP180;10135;50.702;7.276;2023-07-16T13:39:04;99404.00;;;28.60
19948;BMP180;10135;50.702;7.276;2023-07-16T13:41:08;99407.00;;;28.60
19948;BMP180;10135;50.702;7.276;2023-07-16T13:43:09;99401.00;;;28.60
19948;BMP180;10135;50.702;7.276;2023-07-16T13:45:09;99399.00;;;28.60
19948;BMP180;10135;50.702;7.276;2023-07-16T13:47:10;99400.00;;;28.60
19948;BMP180;10135;50.702;7.276;2023-07-16T13:49:10;99407.00;;;28.60
19948;BMP180;10135;50.702;7.276;2023-07-16T13:51:11;99404.00;;;28.70
19948;BMP180;10135;50.702;7.276;2023-07-16T13:53:12;99406.00;;;28.70
19948;BMP180;10135;50.702;7.276;2023-07-16T13:55:12;99405.00;;;28.70
19948;BMP180;10135;50.702;7.276;2023-07-16T13:57:13;99406.00;;;28.70
19948;BMP180;10135;50.702;7.276;2023-07-16T13:59:14;99403.00;;;28.70
19948;BMP180;10135;50.702;7.276;2023-07-16T14:01:14;99401.00;;;28.70
19948;BMP180;10135;50.702;7.276;2023-07-16T14:03:16;99405.00;;;28.70
19948;BMP180;10135;50.702;7.276;2023-07-16T14:05:18;99399.00;;;28.70
19948;BMP180;10135;50.702;7.276;2023-07-16T14:07:20;99403.00;;;28.70
19948;BMP180;10135;50.702;7.276;2023-07-16T14:09:21;99398.00;;;28.70
19948;BMP180;10135;50.702;7.276;2023-07-16T14:11:22;99400.00;;;28.70
19948;BMP180;10135;50.702;7.276;2023-07-16T14:13:23;99390.00;;;28.70
19948;BMP180;10135;50.702;7.276;2023-07-16T14:15:24;99395.00;;;28.80
19948;BMP180;10135;50.702;7.276;2023-07-16T14:17:26;99389.00;;;28.80
19948;BMP180;10135;50.702;7.276;2023-07-16T14:19:26;99389.00;;;28.90
19948;BMP180;10135;50.702;7.276;2023-07-16T14:21:27;99402.00;;;28.90
19948;BMP180;10135;50.702;7.276;2023-07-16T14:23:29;99406.00;;;28.90
19948;BMP180;10135;50.702;7.276;2023-07-16T14:25:29;99394.00;;;28.90
19948;BMP180;10135;50.702;7.276;2023-07-16T14:27:30;99393.00;;;29.00
19948;BMP180;10135;50.702;7.276;2023-07-16T14:29:32;99393.00;;;29.00
19948;BMP180;10135;50.702;7.276;2023-07-16T14:31:33;99396.00;;;29.00
19948;BMP180;10135;50.702;7.276;2023-07-16T14:33:34;99404.00;;;29.00
19948;BMP180;10135;50.702;7.276;2023-07-16T14:35:34;99404.00;;;29.00
19948;BMP180;10135;50.702;7.276;2023-07-16T14:37:35;99406.00;;;29.00
19948;BMP180;10135;50.702;7.276;2023-07-16T14:39:36;99404.00;;;29.00
19948;BMP180;10135;50.702;7.276;2023-07-16T14:41:36;99408.00;;;29.00
19948;BMP180;10135;50.702;7.276;2023-07-16T14:43:38;99402.00;;;29.00
19948;BMP180;10135;50.702;7.276;2023-07-16T14:45:39;99395.00;;;29.00
19948;BMP180;10135;50.702;7.276;2023-07-16T14:47:42;99400.00;;;29.00
19948;BMP180;10135;50.702;7.276;2023-07-16T14:49:43;99405.00;;;29.00
19948;BMP180;10135;50.702;7.276;2023-07-16T14:51:44;99394.00;;;29.00
19948;BMP180;10135;50.702;7.276;2023-07-16T14:53:44;99403.00;;;29.00
19948;BMP180;10135;50.702;7.276;2023-07-16T14:55:49;99401.00;;;29.00
19948;BMP180;10135;50.702;7.276;2023-07-16T14:57:50;99405.00;;;28.90
19948;BMP180;10135;50.702;7.276;2023-07-16T14:59:51;99414.00;;;28.90
19948;BMP180;10135;50.702;7.276;2023-07-16T15:01:51;99404.00;;;28.90
19948;BMP180;10135;50.702;7.276;2023-07-16T15:03:52;99409.00;;;28.90
19948;BMP180;10135;50.702;7.276;2023-07-16T15:06:00;99396.00;;;28.90
19948;BMP180;10135;50.702;7.276;2023-07-16T15:08:00;99398.00;;;28.90
19948;BMP180;10135;50.702;7.276;2023-07-16T15:10:05;99399.00;;;28.90
19948;BMP180;10135;50.702;7.276;2023-07-16T15:12:07;99400.00;;;28.90
19948;BMP180;10135;50.702;7.276;2023-07-16T15:14:08;99393.00;;;28.90
19948;BMP180;10135;50.702;7.276;2023-07-16T15:16:08;99386.00;;;28.90
19948;BMP180;10135;50.702;7.276;2023-07-16T15:18:11;99390.00;;;28.90
19948;BMP180;10135;50.702;7.276;2023-07-16T15:20:12;99383.00;;;28.90
19948;BMP180;10135;50.702;7.276;2023-07-16T15:22:13;99389.00;;;28.90
19948;BMP180;10135;50.702;7.276;2023-07-16T15:24:17;99382.00;;;28.90
19948;BMP180;10135;50.702;7.276;2023-07-16T15:26:17;99385.00;;;28.90
19948;BMP180;10135;50.702;7.276;2023-07-16T15:28:18;99374.00;;;28.90
19948;BMP180;10135;50.702;7.276;2023-07-16T15:30:19;99378.00;;;28.80
19948;BMP180;10135;50.702;7.276;2023-07-16T15:32:20;99388.00;;;28.70
19948;BMP180;10135;50.702;7.276;2023-07-16T15:34:21;99390.00;;;28.70
19948;BMP180;10135;50.702;7.276;2023-07-16T15:36:22;99389.00;;;28.60
19948;BMP180;10135;50.702;7.276;2023-07-16T15:38:23;99386.00;;;28.50
19948;BMP180;10135;50.702;7.276;2023-07-16T15:40:23;99388.00;;;28.50
19948;BMP180;10135;50.702;7.276;2023-07-16T15:42:25;99389.00;;;28.50
19948;BMP180;10135;50.702;7.276;2023-07-16T15:44:27;99394.00;;;28.50
19948;BMP180;10135;50.702;7.276;2023-07-16T15:46:27;99385.00;;;28.40
19948;BMP180;10135;50.702;7.276;2023-07-16T15:48:28;99390.00;;;28.50
19948;BMP180;10135;50.702;7.276;2023-07-16T15:50:29;99395.00;;;28.50
19948;BMP180;10135;50.702;7.276;2023-07-16T15:52:30;99386.00;;;28.50
19948;BMP180;10135;50.702;7.276;2023-07-16T15:54:30;99385.00;;;28.50
19948;BMP180;10135;50.702;7.276;2023-07-16T15:56:31;99384.00;;;28.50
19948;BMP180;10135;50.702;7.276;2023-07-16T15:58:32;99382.00;;;28.50
19948;BMP180;10135;50.702;7.276;2023-07-16T16:00:32;99382.00;;;28.50
19948;BMP180;10135;50.702;7.276;2023-07-16T16:02:33;99380.00;;;28.50
19948;BMP180;10135;50.702;7.276;2023-07-16T16:04:34;99378.00;;;28.50
19948;BMP180;10135;50.702;7.276;2023-07-16T16:06:34;99378.00;;;28.40
19948;BMP180;10135;50.702;7.276;2023-07-16T16:08:35;99383.00;;;28.40
19948;BMP180;10135;50.702;7.276;2023-07-16T16:10:37;99381.00;;;28.40
19948;BMP180;10135;50.702;7.276;2023-07-16T16:12:38;99381.00;;;28.40
19948;BMP180;10135;50.702;7.276;2023-07-16T16:14:38;99373.00;;;28.40
19948;BMP180;10135;50.702;7.276;2023-07-16T16:16:40;99381.00;;;28.40
19948;BMP180;10135;50.702;7.276;2023-07-16T16:18:40;99371.00;;;28.40
19948;BMP180;10135;50.702;7.276;2023-07-16T16:20:43;99376.00;;;28.40
19948;BMP180;10135;50.702;7.276;2023-07-16T16:22:44;99375.00;;;28.40
19948;BMP180;10135;50.702;7.276;2023-07-16T16:24:45;99370.00;;;28.40
19948;BMP180;10135;50.702;7.276;2023-07-16T16:26:45;99371.00;;;28.40
19948;BMP180;10135;50.702;7.276;2023-07-16T16:28:46;99370.00;;;28.40
19948;BMP180;10135;50.702;7.276;2023-07-16T16:30:47;99366.00;;;28.40
19948;BMP180;10135;50.702;7.276;2023-07-16T16:32:47;99372.00;;;28.50
19948;BMP180;10135;50.702;7.276;2023-07-16T16:34:52;99367.00;;;28.50
19948;BMP180;10135;50.702;7.276;2023-07-16T16:36:53;99375.00;;;28.50
19948;BMP180;10135;50.702;7.276;2023-07-16T16:38:55;99379.00;;;28.50
19948;BMP180;10135;50.702;7.276;2023-07-16T16:41:02;99364.00;;;28.50
19948;BMP180;10135;50.702;7.276;2023-07-16T16:43:08;99361.00;;;28.50
19948;BMP180;10135;50.702;7.276;2023-07-16T16:45:10;99359.00;;;28.50
19948;BMP180;10135;50.702;7.276;2023-07-16T16:47:11;99362.00;;;28.50
19948;BMP180;10135;50.702;7.276;2023-07-16T16:49:11;99369.00;;;28.40
19948;BMP180;10135;50.702;7.276;2023-07-16T16:51:12;99374.00;;;28.40
19948;BMP180;10135;50.702;7.276;2023-07-16T16:53:12;99376.00;;;28.40
19948;BMP180;10135;50.702;7.276;2023-07-16T16:55:14;99370.00;;;28.40
19948;BMP180;10135;50.702;7.276;2023-07-16T16:57:14;99374.00;;;28.40
19948;BMP180;10135;50.702;7.276;2023-07-16T16:59:15;99366.00;;;28.40
19948;BMP180;10135;50.702;7.276;2023-07-16T17:01:16;99370.00;;;28.40
19948;BMP180;10135;50.702;7.276;2023-07-16T17:03:18;99374.00;;;28.40
19948;BMP180;10135;50.702;7.276;2023-07-16T17:05:19;99370.00;;;28.40
19948;BMP180;10135;50.702;7.276;2023-07-16T17:07:20;99369.00;;;28.40
19948;BMP180;10135;50.702;7.276;2023-07-16T17:09:21;99361.00;;;28.40
19948;BMP180;10135;50.702;7.276;2023-07-16T17:11:22;99365.00;;;28.40